N126BS KFLL-MUHA
Flight info
| Callsign | N126BS |
|---|---|
| Flight time | N/A |
| Altitude | 23000 |
| Route | MAYNR3 FUNDI M335 JABIR R628 UVA KAVUL4B |
| Aircraft | PC24/M-SBDGIRWY/LB2 |
Departure
| Time | 2026-05-03 21:49 |
|---|---|
| Airport | Fort Lauderdale Hollywood International Airport (KFLL) |
Arrival
| Time | N/A |
|---|---|
| Airport | José Martí International Airport (MUHA) |
| Time | Latitude | Longitude | Altitude | Speed | Heading |
|---|---|---|---|---|---|
| 2026-05-03 20:28 | 26.07296 | -80.15618 | 12 ft | 0 kts | 132° |
| 2026-05-03 21:18 | 26.07295 | -80.15614 | 12 ft | 2 kts | 109° |
| 2026-05-03 21:18 | 26.07315 | -80.15602 | 11 ft | 5 kts | 343° |
| 2026-05-03 21:19 | 26.07354 | -80.15625 | 11 ft | 7 kts | 325° |
| 2026-05-03 21:19 | 26.07388 | -80.15661 | 11 ft | 7 kts | 316° |
| 2026-05-03 21:19 | 26.07429 | -80.15707 | 10 ft | 8 kts | 312° |
| 2026-05-03 21:19 | 26.07474 | -80.15757 | 10 ft | 10 kts | 312° |
| 2026-05-03 21:20 | 26.07493 | -80.15833 | 10 ft | 11 kts | 271° |
| 2026-05-03 21:20 | 26.07494 | -80.15916 | 12 ft | 10 kts | 270° |
| 2026-05-03 21:20 | 26.07496 | -80.15985 | 13 ft | 8 kts | 271° |
| 2026-05-03 21:20 | 26.07495 | -80.16035 | 14 ft | 5 kts | 270° |
| 2026-05-03 21:21 | 26.07495 | -80.16061 | 15 ft | 5 kts | 270° |
| 2026-05-03 21:21 | 26.07495 | -80.16117 | 15 ft | 9 kts | 271° |
| 2026-05-03 21:21 | 26.07496 | -80.16235 | 14 ft | 12 kts | 270° |
| 2026-05-03 21:21 | 26.07496 | -80.16275 | 14 ft | 0 kts | 270° |
| 2026-05-03 21:23 | 26.07496 | -80.16277 | 14 ft | 2 kts | 270° |
| 2026-05-03 21:24 | 26.07496 | -80.16311 | 14 ft | 7 kts | 270° |
| 2026-05-03 21:24 | 26.07496 | -80.16362 | 14 ft | 0 kts | 270° |
| 2026-05-03 21:31 | 26.07496 | -80.16377 | 14 ft | 5 kts | 269° |
| 2026-05-03 21:31 | 26.07497 | -80.16406 | 14 ft | 0 kts | 270° |
| 2026-05-03 21:31 | 26.07497 | -80.16407 | 14 ft | 1 kts | 271° |
| 2026-05-03 21:31 | 26.07497 | -80.16418 | 14 ft | 0 kts | 271° |
| 2026-05-03 21:32 | 26.07497 | -80.16427 | 14 ft | 0 kts | 272° |
| 2026-05-03 21:32 | 26.07497 | -80.16432 | 14 ft | 2 kts | 272° |
| 2026-05-03 21:32 | 26.07498 | -80.16472 | 14 ft | 7 kts | 270° |
| 2026-05-03 21:32 | 26.07498 | -80.16484 | 14 ft | 0 kts | 270° |
| 2026-05-03 21:34 | 26.07498 | -80.16501 | 14 ft | 0 kts | 270° |
| 2026-05-03 21:34 | 26.07498 | -80.16507 | 14 ft | 3 kts | 270° |
| 2026-05-03 21:34 | 26.07498 | -80.16520 | 14 ft | 0 kts | 270° |
| 2026-05-03 21:38 | 26.07498 | -80.16528 | 14 ft | 4 kts | 271° |
| 2026-05-03 21:38 | 26.07498 | -80.16554 | 14 ft | 0 kts | 270° |
| 2026-05-03 21:43 | 26.07498 | -80.16559 | 14 ft | 2 kts | 269° |
| 2026-05-03 21:43 | 26.07500 | -80.16603 | 13 ft | 8 kts | 279° |
| 2026-05-03 21:43 | 26.07504 | -80.16620 | 13 ft | 0 kts | 295° |
| 2026-05-03 21:45 | 26.07511 | -80.16632 | 13 ft | 5 kts | 308° |
| 2026-05-03 21:45 | 26.07535 | -80.16644 | 12 ft | 1 kts | 358° |
| 2026-05-03 21:46 | 26.07540 | -80.16644 | 12 ft | 2 kts | 359° |
| 2026-05-03 21:46 | 26.07579 | -80.16644 | 12 ft | 6 kts | 0° |
| 2026-05-03 21:46 | 26.07582 | -80.16644 | 11 ft | 0 kts | 0° |
| 2026-05-03 21:47 | 26.07600 | -80.16644 | 11 ft | 8 kts | 1° |
| 2026-05-03 21:47 | 26.07665 | -80.16639 | 11 ft | 10 kts | 15° |
| 2026-05-03 21:48 | 26.07695 | -80.16592 | 11 ft | 7 kts | 90° |
| 2026-05-03 21:48 | 26.07695 | -80.16589 | 11 ft | 0 kts | 90° |
| 2026-05-03 21:49 | 26.07696 | -80.16502 | 13 ft | 39 kts | 89° |
| 2026-05-03 21:49 | 26.07699 | -80.15846 | 20 ft | 127 kts | 93° |
| 2026-05-03 21:49 | 26.07661 | -80.14647 | 369 ft | 182 kts | 92° |
| 2026-05-03 21:49 | 26.07627 | -80.13045 | 993 ft | 233 kts | 86° |
| 2026-05-03 21:50 | 26.07755 | -80.11066 | 1042 ft | 259 kts | 84° |
| 2026-05-03 21:50 | 26.08146 | -80.09192 | 904 ft | 250 kts | 64° |
| 2026-05-03 21:50 | 26.09130 | -80.07618 | 750 ft | 247 kts | 43° |
| 2026-05-03 21:50 | 26.10514 | -80.06558 | 670 ft | 237 kts | 23° |
| 2026-05-03 21:51 | 26.11993 | -80.05975 | 1081 ft | 215 kts | 19° |
| 2026-05-03 21:51 | 26.13339 | -80.05409 | 1765 ft | 207 kts | 20° |
| 2026-05-03 21:51 | 26.14691 | -80.04918 | 2925 ft | 204 kts | 9° |
| 2026-05-03 21:51 | 26.16149 | -80.04907 | 3769 ft | 222 kts | 349° |
| 2026-05-03 21:52 | 26.17735 | -80.05441 | 4013 ft | 252 kts | 338° |
| 2026-05-03 21:52 | 26.19427 | -80.06128 | 4012 ft | 262 kts | 339° |
| 2026-05-03 21:52 | 26.21053 | -80.07035 | 3994 ft | 264 kts | 323° |
| 2026-05-03 21:52 | 26.22386 | -80.08380 | 3987 ft | 260 kts | 309° |
| 2026-05-03 21:53 | 26.23368 | -80.10067 | 4007 ft | 262 kts | 294° |
| 2026-05-03 21:53 | 26.24040 | -80.11941 | 3989 ft | 260 kts | 290° |
| 2026-05-03 21:53 | 26.24713 | -80.13816 | 3993 ft | 260 kts | 291° |
| 2026-05-03 21:53 | 26.25308 | -80.15723 | 3987 ft | 261 kts | 281° |
| 2026-05-03 21:54 | 26.25450 | -80.17735 | 3992 ft | 262 kts | 270° |
| 2026-05-03 21:54 | 26.25439 | -80.19759 | 4011 ft | 264 kts | 269° |
| 2026-05-03 21:54 | 26.25445 | -80.21830 | 4012 ft | 267 kts | 270° |
| 2026-05-03 21:54 | 26.25445 | -80.23882 | 4008 ft | 263 kts | 270° |
| 2026-05-03 21:55 | 26.25440 | -80.25921 | 3998 ft | 263 kts | 270° |
| 2026-05-03 21:55 | 26.25438 | -80.27947 | 3997 ft | 261 kts | 270° |
| 2026-05-03 21:55 | 26.25438 | -80.29987 | 4009 ft | 263 kts | 268° |
| 2026-05-03 21:55 | 26.25434 | -80.32002 | 3977 ft | 258 kts | 270° |
| 2026-05-03 21:56 | 26.25432 | -80.33980 | 3995 ft | 258 kts | 270° |
| 2026-05-03 21:56 | 26.25429 | -80.35997 | 3999 ft | 259 kts | 269° |
| 2026-05-03 21:56 | 26.25427 | -80.38006 | 4000 ft | 260 kts | 270° |
| 2026-05-03 21:56 | 26.25425 | -80.40021 | 3999 ft | 260 kts | 269° |
| 2026-05-03 21:57 | 26.25420 | -80.42040 | 4075 ft | 262 kts | 270° |
| 2026-05-03 21:57 | 26.25417 | -80.43968 | 5485 ft | 237 kts | 269° |
| 2026-05-03 21:57 | 26.25414 | -80.45698 | 7105 ft | 210 kts | 269° |
| 2026-05-03 21:57 | 26.25410 | -80.47281 | 8306 ft | 205 kts | 269° |
| 2026-05-03 21:58 | 26.25406 | -80.48892 | 9245 ft | 210 kts | 269° |
| 2026-05-03 21:58 | 26.25401 | -80.50581 | 9881 ft | 230 kts | 269° |
| 2026-05-03 21:58 | 26.25395 | -80.52490 | 10015 ft | 263 kts | 269° |
| 2026-05-03 21:58 | 26.25390 | -80.54651 | 10023 ft | 292 kts | 269° |
| 2026-05-03 21:59 | 26.25385 | -80.56951 | 10014 ft | 300 kts | 269° |
| 2026-05-03 21:59 | 26.25303 | -80.59283 | 10005 ft | 303 kts | 259° |
| 2026-05-03 21:59 | 26.24387 | -80.61390 | 10004 ft | 305 kts | 236° |
| 2026-05-03 21:59 | 26.23262 | -80.63328 | 10976 ft | 286 kts | 237° |
| 2026-05-03 22:00 | 26.21767 | -80.64618 | 12518 ft | 269 kts | 204° |
| 2026-05-03 22:00 | 26.19961 | -80.64712 | 14084 ft | 254 kts | 178° |
| 2026-05-03 22:00 | 26.18273 | -80.64323 | 15190 ft | 247 kts | 174° |
| 2026-05-03 22:00 | 26.16579 | -80.63848 | 15820 ft | 259 kts | 173° |
| 2026-05-03 22:01 | 26.14749 | -80.63327 | 16017 ft | 287 kts | 173° |
| 2026-05-03 22:01 | 26.12708 | -80.62767 | 16024 ft | 317 kts | 173° |
| 2026-05-03 22:01 | 26.10463 | -80.62176 | 16018 ft | 343 kts | 173° |
| 2026-05-03 22:01 | 26.09949 | -80.62044 | 16016 ft | 346 kts | 173° |
| 2026-05-03 22:02 | 26.07418 | -80.61489 | 16004 ft | 348 kts | 182° |
| 2026-05-03 22:02 | 26.05064 | -80.61962 | 16007 ft | 343 kts | 206° |
| 2026-05-03 22:02 | 26.02947 | -80.63116 | 16006 ft | 337 kts | 213° |
| 2026-05-03 22:02 | 26.00914 | -80.64340 | 15989 ft | 332 kts | 212° |
| 2026-05-03 22:03 | 25.98796 | -80.65438 | 15994 ft | 338 kts | 206° |
| 2026-05-03 22:03 | 25.96551 | -80.66251 | 15994 ft | 341 kts | 201° |
| 2026-05-03 22:03 | 25.94292 | -80.66963 | 15993 ft | 340 kts | 201° |
| 2026-05-03 22:03 | 25.92044 | -80.67795 | 15997 ft | 339 kts | 204° |
| 2026-05-03 22:04 | 25.89823 | -80.68676 | 15993 ft | 339 kts | 204° |
| 2026-05-03 22:04 | 25.87585 | -80.69518 | 15988 ft | 340 kts | 203° |
| 2026-05-03 22:04 | 25.85334 | -80.70340 | 15992 ft | 340 kts | 203° |
| 2026-05-03 22:04 | 25.83183 | -80.71393 | 15987 ft | 337 kts | 213° |
| 2026-05-03 22:05 | 25.81294 | -80.72787 | 16969 ft | 312 kts | 221° |
| 2026-05-03 22:05 | 25.79759 | -80.74314 | 18515 ft | 281 kts | 229° |
| 2026-05-03 22:05 | 25.78562 | -80.75881 | 19873 ft | 252 kts | 236° |
| 2026-05-03 22:05 | 25.77601 | -80.77492 | 20487 ft | 259 kts | 242° |
| 2026-05-03 22:06 | 25.76787 | -80.79380 | 20489 ft | 283 kts | 249° |
| 2026-05-03 22:06 | 25.76150 | -80.81533 | 20507 ft | 304 kts | 253° |
| 2026-05-03 22:06 | 25.75533 | -80.83833 | 20539 ft | 323 kts | 253° |
| 2026-05-03 22:06 | 25.74858 | -80.86272 | 20559 ft | 339 kts | 253° |
| 2026-05-03 22:07 | 25.74166 | -80.88800 | 20885 ft | 343 kts | 253° |
| 2026-05-03 22:07 | 25.73477 | -80.91336 | 21336 ft | 344 kts | 253° |
| 2026-05-03 22:07 | 25.72782 | -80.93883 | 21722 ft | 346 kts | 253° |
| 2026-05-03 22:07 | 25.72080 | -80.96449 | 21979 ft | 351 kts | 253° |
| 2026-05-03 22:08 | 25.71372 | -80.99034 | 21981 ft | 349 kts | 253° |
| 2026-05-03 22:08 | 25.70669 | -81.01603 | 21980 ft | 348 kts | 253° |
| 2026-05-03 22:08 | 25.70204 | -81.03302 | 21983 ft | 348 kts | 253° |
| 2026-05-03 22:08 | 25.69502 | -81.05865 | 21984 ft | 347 kts | 253° |
| 2026-05-03 22:09 | 25.68797 | -81.08430 | 21982 ft | 347 kts | 253° |
| 2026-05-03 22:09 | 25.68098 | -81.10979 | 21983 ft | 338 kts | 252° |
| 2026-05-03 22:09 | 25.67413 | -81.13470 | 21981 ft | 342 kts | 252° |
| 2026-05-03 22:10 | 25.66012 | -81.18566 | 21991 ft | 347 kts | 252° |
| 2026-05-03 22:10 | 25.65194 | -81.21075 | 21982 ft | 346 kts | 246° |
| 2026-05-03 22:10 | 25.64072 | -81.23442 | 21982 ft | 349 kts | 240° |
| 2026-05-03 22:10 | 25.62661 | -81.25638 | 21980 ft | 352 kts | 233° |
| 2026-05-03 22:11 | 25.60998 | -81.27597 | 21981 ft | 354 kts | 226° |
| 2026-05-03 22:11 | 25.59159 | -81.29406 | 21984 ft | 353 kts | 225° |
| 2026-05-03 22:11 | 25.57333 | -81.31225 | 21988 ft | 353 kts | 225° |
| 2026-05-03 22:11 | 25.55512 | -81.33043 | 21982 ft | 353 kts | 225° |
| 2026-05-03 22:12 | 25.53683 | -81.34856 | 21977 ft | 353 kts | 225° |
| 2026-05-03 22:12 | 25.51828 | -81.36693 | 21984 ft | 360 kts | 225° |
| 2026-05-03 22:12 | 25.49960 | -81.38544 | 21984 ft | 362 kts | 225° |
| 2026-05-03 22:12 | 25.48077 | -81.40410 | 21987 ft | 363 kts | 225° |
| 2026-05-03 22:13 | 25.46193 | -81.42274 | 21982 ft | 363 kts | 225° |
| 2026-05-03 22:13 | 25.44311 | -81.44138 | 21982 ft | 364 kts | 225° |
| 2026-05-03 22:13 | 25.42427 | -81.46002 | 21983 ft | 364 kts | 225° |
| 2026-05-03 22:13 | 25.40544 | -81.47863 | 21981 ft | 363 kts | 225° |
| 2026-05-03 22:14 | 25.38655 | -81.49731 | 21976 ft | 363 kts | 225° |
| 2026-05-03 22:14 | 25.36765 | -81.51598 | 21981 ft | 363 kts | 225° |
| 2026-05-03 22:14 | 25.34885 | -81.53455 | 21977 ft | 363 kts | 225° |
| 2026-05-03 22:14 | 25.33000 | -81.55316 | 21977 ft | 363 kts | 225° |
| 2026-05-03 22:15 | 25.31114 | -81.57177 | 21974 ft | 363 kts | 225° |
| 2026-05-03 22:15 | 25.29256 | -81.59010 | 21974 ft | 363 kts | 225° |
| 2026-05-03 22:15 | 25.27372 | -81.60867 | 21972 ft | 364 kts | 225° |
| 2026-05-03 22:15 | 25.25482 | -81.62730 | 21972 ft | 363 kts | 225° |
| 2026-05-03 22:16 | 25.23593 | -81.64590 | 21972 ft | 363 kts | 225° |
| 2026-05-03 22:16 | 25.21703 | -81.66451 | 21971 ft | 364 kts | 225° |
| 2026-05-03 22:16 | 25.19813 | -81.68311 | 22003 ft | 363 kts | 225° |